LPAZ/SMA METAR and TAF weather

Enter ICAO airport designator
Station Type Date Time Source
LPAZ METAR 2019/04/25 01:30 UTC NOAA

LPAZ 250130Z 33010KT 9999 FEW026 13/08 Q1021


Station Type Date Time Source
LPAZ Decoded METAR 2019/04/25 01:30 UTC NOAA

Santa Maria Acores , Portugal (LPAZ) 36-58N 025-10W 100M
Apr 24, 2019 - 09:30 PM EDT / 2019.04.25 0130 UTC
Wind: from the NNW (330 degrees) at 12 MPH (10 KT):0
Visibility: greater than 7 mile(s):0
Sky conditions: mostly clear
Temperature: 55 F (13 C)
Dew Point: 46 F (8 C)
Relative Humidity: 71%
Pressure (altimeter): 30.15 in. Hg (1021 hPa)
ob: LPAZ 250130Z 33010KT 9999 FEW026 13/08 Q1021
cycle: 1

Station Type Date Time Source
LPAZ TAF 2019/04/24 18:18 UTC NOAA

TAF TAF LPAZ 241700Z 2418/2524 33013KT 9999 FEW020
TEMPO 2418/2524 FEW018 BKN035
BECMG 2506/2509 36008KT
BECMG 2513/2516 04008KT
BECMG 2520/2523 08008KT

Example: see airport list